Time;durP1;ratioP1;P1;durP2;ratioP2;P2;SDS_P1;SDS_P2;PMS_P1;PMS_P2;Temp;Humidity;BMP_temperature;BMP_pressure;BME280_temperature;BME280_humidity;BME280_pressure;Samples;Min_cycle;Max_cycle;Signal;HPM_P1;HPM_P2
2022/04/02 00:01:41;;;;;;;5.82;2.00;;;1.90;99.90;;;;;;5012058;28;20041;-79
2022/04/02 00:04:07;;;;;;;5.07;2.45;;;2.00;99.90;;;;;;5013625;28;20018;-79
2022/04/02 00:06:33;;;;;;;1.60;1.48;;;2.00;99.90;;;;;;5010889;28;20061;-79
2022/04/02 00:08:59;;;;;;;3.90;1.45;;;2.00;99.90;;;;;;5008514;28;20018;-79
2022/04/02 00:11:24;;;;;;;4.65;2.00;;;2.00;99.90;;;;;;5011296;28;20058;-79
2022/04/02 00:13:50;;;;;;;8.50;2.20;;;2.00;99.90;;;;;;5013629;28;20050;-79
2022/04/02 00:16:16;;;;;;;8.38;2.75;;;2.10;99.90;;;;;;5020681;28;20037;-80
2022/04/02 00:18:42;;;;;;;4.75;1.33;;;2.10;99.90;;;;;;5021702;28;20061;-79
2022/04/02 00:21:08;;;;;;;3.30;1.70;;;2.10;99.90;;;;;;5011373;28;20086;-80
2022/04/02 00:23:40;;;;;;;1.60;1.30;;;2.20;99.90;;;;;;5005875;28;20065;-80
2022/04/02 00:26:12;;;;;;;4.60;1.55;;;2.20;99.90;;;;;;5015328;28;20033;-77
2022/04/02 00:28:39;;;;;;;2.58;1.27;;;2.20;99.90;;;;;;5011416;28;20015;-77
2022/04/02 00:31:07;;;;;;;4.93;1.40;;;2.20;99.90;;;;;;5013506;28;20018;-78
2022/04/02 00:33:33;;;;;;;3.25;1.60;;;2.20;99.90;;;;;;4999608;28;20018;-77
2022/04/02 00:35:59;;;;;;;5.20;1.80;;;2.20;99.90;;;;;;5015050;28;20021;-77
2022/04/02 00:38:24;;;;;;;2.72;1.55;;;2.20;99.90;;;;;;5001940;28;20025;-77
2022/04/02 00:40:50;;;;;;;2.72;1.25;;;2.20;99.90;;;;;;5012109;28;20018;-77
2022/04/02 00:43:26;;;;;;;4.03;1.40;;;2.20;99.90;;;;;;5012771;28;20014;-78
2022/04/02 00:45:57;;;;;;;3.92;1.52;;;2.20;99.90;;;;;;5010862;28;20042;-78
2022/04/02 00:48:24;;;;;;;6.63;1.55;;;2.10;99.90;;;;;;5012013;28;20021;-78
2022/04/02 00:50:55;;;;;;;3.10;2.63;;;2.00;99.90;;;;;;5020050;28;20010;-77
2022/04/02 00:53:28;;;;;;;4.25;1.60;;;1.90;99.90;;;;;;5012928;28;20046;-78
2022/04/02 00:55:54;;;;;;;4.40;1.42;;;1.90;99.90;;;;;;5000265;28;20035;-78
2022/04/02 00:58:20;;;;;;;2.75;1.20;;;1.80;99.90;;;;;;5007032;28;20045;-78
2022/04/02 01:00:46;;;;;;;2.53;1.25;;;1.80;99.90;;;;;;5003705;28;20023;-78
2022/04/02 01:03:13;;;;;;;2.78;1.38;;;1.80;99.90;;;;;;5019901;28;20098;-77
2022/04/02 01:05:40;;;;;;;2.47;1.33;;;1.80;99.90;;;;;;5003905;28;20019;-78
2022/04/02 01:08:05;;;;;;;3.85;1.52;;;1.80;99.90;;;;;;5017132;28;20034;-78
2022/04/02 01:10:32;;;;;;;2.55;1.40;;;1.80;99.90;;;;;;5012887;28;20076;-78
2022/04/02 01:12:58;;;;;;;3.38;1.60;;;1.60;99.90;;;;;;4994054;28;20062;-78
2022/04/02 01:15:24;;;;;;;3.28;1.45;;;1.50;99.90;;;;;;5013480;28;20034;-78
2022/04/02 01:17:49;;;;;;;3.33;1.20;;;1.40;99.90;;;;;;5013421;28;20021;-78
2022/04/02 01:20:17;;;;;;;3.58;1.33;;;1.50;99.90;;;;;;5003163;28;20022;-78
2022/04/02 01:22:43;;;;;;;2.47;1.48;;;1.40;99.90;;;;;;5017870;28;20018;-78
2022/04/02 01:25:08;;;;;;;1.33;0.77;;;1.40;99.90;;;;;;5018637;28;20053;-78
2022/04/02 01:27:34;;;;;;;1.67;0.90;;;1.30;99.90;;;;;;4983257;28;20039;-78
2022/04/02 01:30:00;;;;;;;1.83;1.15;;;1.20;99.90;;;;;;5015196;28;20042;-77
2022/04/02 01:32:27;;;;;;;2.40;1.58;;;1.20;99.90;;;;;;5017094;28;20066;-78
2022/04/02 01:34:53;;;;;;;2.13;1.33;;;1.00;99.90;;;;;;4990287;28;20033;-78
2022/04/02 01:37:19;;;;;;;1.35;0.98;;;0.90;99.90;;;;;;5010453;28;20078;-78
2022/04/02 01:39:44;;;;;;;3.28;1.70;;;0.80;99.90;;;;;;5000383;28;20015;-77
2022/04/02 01:42:10;;;;;;;1.88;1.17;;;0.70;99.90;;;;;;5014632;28;20019;-77
2022/04/02 01:44:36;;;;;;;4.70;2.20;;;0.70;99.90;;;;;;5016858;28;20110;-77
2022/04/02 01:47:02;;;;;;;2.30;1.15;;;0.70;99.90;;;;;;5005164;28;20026;-78
2022/04/02 01:49:28;;;;;;;4.68;1.42;;;0.60;99.90;;;;;;5018900;28;20029;-77
2022/04/02 01:51:54;;;;;;;2.70;1.17;;;0.60;99.90;;;;;;5017144;28;20085;-78
2022/04/02 01:54:22;;;;;;;3.08;1.55;;;0.50;99.90;;;;;;5031798;28;20023;-77
2022/04/02 01:56:48;;;;;;;4.20;1.50;;;0.50;99.90;;;;;;5009240;28;20019;-78
2022/04/02 01:59:13;;;;;;;2.53;1.42;;;0.50;99.90;;;;;;5017296;28;20065;-78
2022/04/02 02:01:40;;;;;;;2.08;1.25;;;0.40;99.90;;;;;;5001965;28;20030;-77
2022/04/02 02:04:06;;;;;;;8.73;2.10;;;0.40;99.90;;;;;;4994570;28;20094;-78
2022/04/02 02:06:33;;;;;;;6.00;1.50;;;0.40;99.90;;;;;;5010551;28;20043;-77
2022/04/02 02:08:59;;;;;;;2.38;1.60;;;0.30;99.90;;;;;;5002410;28;20022;-77
2022/04/02 02:11:25;;;;;;;3.63;1.42;;;0.20;99.90;;;;;;5010480;28;20023;-77
2022/04/02 02:13:51;;;;;;;1.83;1.35;;;0.20;99.90;;;;;;5009518;28;20191;-78
2022/04/02 02:16:18;;;;;;;4.03;1.23;;;0.20;99.90;;;;;;4988597;28;20018;-77
2022/04/02 02:18:44;;;;;;;3.40;0.90;;;0.10;99.90;;;;;;5017972;28;20018;-77
2022/04/02 02:21:09;;;;;;;2.08;1.52;;;0.20;99.90;;;;;;5015663;28;20042;-77
2022/04/02 02:23:35;;;;;;;3.90;0.82;;;0.10;99.90;;;;;;4999790;28;20030;-78
2022/04/02 02:26:01;;;;;;;2.97;1.42;;;0.10;99.90;;;;;;4999426;28;20062;-77
2022/04/02 02:28:26;;;;;;;1.17;0.70;;;0.10;99.90;;;;;;5004084;28;20021;-77
2022/04/02 02:30:54;;;;;;;2.55;0.98;;;0.10;99.90;;;;;;5026904;28;20045;-77
2022/04/02 02:36:04;;;;;;;1.83;0.80;;;0.00;99.90;;;;;;5016989;28;20042;-77
2022/04/02 02:38:29;;;;;;;1.50;1.02;;;-0.10;99.90;;;;;;5010036;28;20014;-78
2022/04/02 02:40:55;;;;;;;1.85;1.25;;;0.00;99.90;;;;;;5017976;28;20014;-78
2022/04/02 02:43:20;;;;;;;1.23;1.10;;;-0.10;99.90;;;;;;5021651;28;20074;-77
2022/04/02 02:45:46;;;;;;;2.55;1.42;;;-0.20;99.90;;;;;;5007350;28;20014;-77
2022/04/02 02:48:12;;;;;;;2.53;1.20;;;-0.20;99.90;;;;;;5018934;28;20040;-77
2022/04/02 02:50:38;;;;;;;2.50;1.30;;;-0.30;99.90;;;;;;5027106;28;20015;-77
2022/04/02 02:53:04;;;;;;;1.80;1.00;;;-0.20;99.90;;;;;;5007528;28;20041;-77
2022/04/02 02:55:30;;;;;;;3.78;0.98;;;-0.30;99.90;;;;;;5017873;28;20050;-77
2022/04/02 02:57:56;;;;;;;2.75;1.13;;;-0.30;99.90;;;;;;5017869;28;20019;-77
2022/04/02 03:00:22;;;;;;;3.65;1.00;;;-0.30;99.90;;;;;;5009760;28;20054;-77
2022/04/02 03:02:47;;;;;;;3.03;0.85;;;-0.30;99.90;;;;;;5003652;28;20030;-78
2022/04/02 03:05:15;;;;;;;3.55;1.08;;;-0.30;99.90;;;;;;5009082;28;20072;-77
2022/04/02 03:07:48;;;;;;;3.47;1.35;;;-0.40;99.90;;;;;;4994096;28;20038;-77
2022/04/02 03:10:15;;;;;;;6.38;1.30;;;-0.40;99.90;;;;;;5001699;28;20281;-78
2022/04/02 03:12:41;;;;;;;1.15;0.65;;;-0.50;99.90;;;;;;4996266;28;20030;-77
2022/04/02 03:15:07;;;;;;;1.95;1.00;;;-0.40;99.90;;;;;;4997847;28;20046;-77
2022/04/02 03:17:33;;;;;;;3.28;1.15;;;-0.40;99.90;;;;;;5014756;28;20019;-78
2022/04/02 03:19:58;;;;;;;2.45;1.00;;;-0.40;99.90;;;;;;4998003;28;20030;-77
2022/04/02 03:22:25;;;;;;;3.70;1.13;;;-0.20;99.90;;;;;;5014338;28;20029;-77
2022/04/02 03:24:50;;;;;;;2.28;1.20;;;-0.30;99.90;;;;;;5002671;28;20014;-77
2022/04/02 03:27:16;;;;;;;1.73;1.00;;;-0.30;99.90;;;;;;5009190;28;20034;-77
2022/04/02 03:29:42;;;;;;;2.75;0.85;;;-0.20;99.90;;;;;;5001443;28;20082;-77
2022/04/02 03:32:07;;;;;;;3.90;1.10;;;-0.40;99.90;;;;;;5005120;28;20038;-78
2022/04/02 03:34:33;;;;;;;3.22;0.82;;;-0.40;99.90;;;;;;5009136;28;20102;-77
2022/04/02 03:36:58;;;;;;;2.92;1.15;;;-0.40;99.90;;;;;;4987663;28;20043;-77
2022/04/02 03:39:24;;;;;;;3.58;1.20;;;-0.50;99.90;;;;;;5005620;28;20036;-77
2022/04/02 03:41:53;;;;;;;2.15;0.80;;;-0.50;99.90;;;;;;5008884;28;20025;-78
2022/04/02 03:44:18;;;;;;;1.35;0.90;;;-0.60;99.90;;;;;;4984890;28;20015;-77
2022/04/02 03:49:28;;;;;;;2.38;1.35;;;-0.70;99.90;;;;;;5008697;28;20029;-77
2022/04/02 03:51:55;;;;;;;3.67;1.50;;;-0.80;99.90;;;;;;5008929;28;20042;-77
2022/04/02 03:54:21;;;;;;;3.42;1.23;;;-0.90;99.90;;;;;;5016641;28;20021;-77
2022/04/02 03:56:46;;;;;;;1.95;1.00;;;-0.90;99.90;;;;;;5007551;28;20188;-78
2022/04/02 03:59:12;;;;;;;2.72;1.13;;;-0.90;99.90;;;;;;4997712;28;20035;-77
2022/04/02 04:01:39;;;;;;;2.42;0.82;;;-0.90;99.90;;;;;;4998255;28;20034;-77
2022/04/02 04:04:04;;;;;;;1.88;1.25;;;-1.00;99.90;;;;;;5016928;28;20019;-77
2022/04/02 04:06:31;;;;;;;2.08;1.08;;;-0.90;99.90;;;;;;5001722;28;20051;-77
2022/04/02 04:08:58;;;;;;;3.40;0.88;;;-0.80;99.90;;;;;;5004961;28;20042;-77
2022/04/02 04:11:25;;;;;;;1.52;1.17;;;-0.90;99.90;;;;;;4996927;28;20026;-77
2022/04/02 04:13:51;;;;;;;4.15;1.33;;;-0.90;99.90;;;;;;4988474;28;20039;-76
2022/04/02 04:16:17;;;;;;;4.75;1.25;;;-0.90;99.90;;;;;;4988623;28;20050;-77
2022/04/02 04:18:42;;;;;;;3.70;1.00;;;-0.70;99.90;;;;;;5016746;28;20026;-80
2022/04/02 04:21:08;;;;;;;1.65;0.90;;;-0.50;99.90;;;;;;5012326;28;20018;-79
2022/04/02 04:23:34;;;;;;;2.13;0.80;;;-0.60;99.90;;;;;;4996708;28;20026;-78
2022/04/02 04:26:01;;;;;;;1.92;0.80;;;-0.40;99.90;;;;;;5010921;28;20049;-79
2022/04/02 04:28:26;;;;;;;4.63;1.10;;;-0.50;99.90;;;;;;5012599;28;20019;-79
2022/04/02 04:30:52;;;;;;;2.58;1.10;;;-0.50;99.90;;;;;;5003117;28;20019;-79
2022/04/02 04:33:17;;;;;;;2.05;1.13;;;-0.50;99.90;;;;;;5000944;28;20035;-79
2022/04/02 04:35:43;;;;;;;3.25;1.02;;;-0.50;99.90;;;;;;5006733;28;20050;-80
2022/04/02 04:38:08;;;;;;;3.45;0.93;;;-0.50;99.90;;;;;;5020993;28;20025;-80
2022/04/02 04:40:34;;;;;;;2.03;0.90;;;-0.50;99.90;;;;;;5011795;28;20026;-80
2022/04/02 04:43:00;;;;;;;2.00;0.50;;;-0.60;99.90;;;;;;5018409;28;20033;-79
2022/04/02 04:45:25;;;;;;;3.28;1.05;;;-0.70;99.90;;;;;;5015467;28;20086;-79
2022/04/02 04:47:51;;;;;;;2.13;1.15;;;-0.70;99.90;;;;;;5020421;28;20118;-79
2022/04/02 04:50:18;;;;;;;2.15;0.75;;;-0.70;99.90;;;;;;5013156;28;20010;-79
2022/04/02 04:52:44;;;;;;;2.75;0.93;;;-0.70;99.90;;;;;;5019814;28;20172;-79
2022/04/02 04:55:10;;;;;;;4.18;0.73;;;-0.70;99.90;;;;;;5010094;28;20292;-79
2022/04/02 04:57:36;;;;;;;4.72;1.20;;;-0.70;99.90;;;;;;5015412;28;20027;-79
2022/04/02 05:00:02;;;;;;;6.03;1.10;;;-0.70;99.90;;;;;;5000196;28;20091;-79
2022/04/02 05:02:30;;;;;;;3.58;1.10;;;-0.80;99.90;;;;;;4988279;28;20050;-79
2022/04/02 05:04:56;;;;;;;3.85;1.20;;;-0.80;99.90;;;;;;5014861;28;20017;-78
2022/04/02 05:07:21;;;;;;;6.07;1.02;;;-0.80;99.90;;;;;;4999940;28;20086;-79
2022/04/02 05:09:47;;;;;;;7.47;1.98;;;-0.80;99.90;;;;;;5001628;28;20026;-79
2022/04/02 05:12:14;;;;;;;3.83;1.83;;;-0.80;99.90;;;;;;5001353;28;20019;-78
2022/04/02 05:14:40;;;;;;;2.65;0.90;;;-0.70;99.90;;;;;;4999653;28;20081;-79
2022/04/02 05:17:05;;;;;;;2.60;1.10;;;-0.70;99.90;;;;;;5012848;28;20018;-78
2022/04/02 05:19:31;;;;;;;2.35;0.90;;;-0.70;99.90;;;;;;5007972;28;20072;-78
2022/04/02 05:21:57;;;;;;;7.32;1.23;;;-0.80;99.90;;;;;;5017010;28;20108;-78
2022/04/02 05:24:23;;;;;;;4.20;1.80;;;-0.80;99.90;;;;;;4999951;28;20030;-77
2022/04/02 05:26:51;;;;;;;5.95;1.20;;;-0.80;99.90;;;;;;5009999;28;20006;-78
2022/04/02 05:29:17;;;;;;;2.15;1.20;;;-0.80;99.90;;;;;;5018102;28;20026;-78
2022/04/02 05:31:42;;;;;;;1.95;1.00;;;-0.70;99.90;;;;;;5014329;28;20030;-78
2022/04/02 05:34:09;;;;;;;1.95;1.20;;;-0.70;99.90;;;;;;4998605;28;20027;-78
2022/04/02 05:36:35;;;;;;;1.40;0.73;;;-0.60;99.90;;;;;;5006958;28;20037;-79
2022/04/02 05:39:01;;;;;;;4.22;1.25;;;-0.40;99.90;;;;;;5004323;28;20073;-78
2022/04/02 05:41:28;;;;;;;2.33;1.15;;;-0.40;99.90;;;;;;4996799;28;20026;-78
2022/04/02 05:43:54;;;;;;;2.05;1.10;;;-0.30;99.90;;;;;;5003663;28;20033;-78
2022/04/02 05:46:19;;;;;;;7.82;0.98;;;-0.30;99.90;;;;;;5012481;28;20054;-79
2022/04/02 05:48:45;;;;;;;1.75;0.80;;;-0.30;99.90;;;;;;4999675;28;20014;-79
2022/04/02 05:51:10;;;;;;;5.57;1.13;;;-0.20;99.90;;;;;;4995656;28;20046;-79
2022/04/02 05:53:36;;;;;;;1.58;1.15;;;-0.20;99.90;;;;;;4992525;28;20077;-80
2022/04/02 05:56:02;;;;;;;1.25;0.82;;;-0.10;99.90;;;;;;4999408;28;20058;-80
2022/04/02 05:58:28;;;;;;;1.65;1.08;;;0.10;99.90;;;;;;4981681;28;20031;-79
2022/04/02 06:00:54;;;;;;;2.58;1.15;;;0.20;99.90;;;;;;5009518;28;20046;-80
2022/04/02 06:03:20;;;;;;;4.10;1.27;;;0.30;99.90;;;;;;5005320;28;20026;-80
2022/04/02 06:05:48;;;;;;;4.25;1.33;;;0.30;99.90;;;;;;4998101;28;20031;-80
2022/04/02 06:08:15;;;;;;;3.90;1.30;;;0.40;99.90;;;;;;4998544;28;20026;-80
2022/04/02 06:10:41;;;;;;;2.75;0.85;;;0.50;99.90;;;;;;5019717;28;20014;-79
2022/04/02 06:13:07;;;;;;;2.92;1.55;;;0.60;99.90;;;;;;4997890;28;20038;-79
2022/04/02 06:15:34;;;;;;;6.05;1.95;;;0.70;99.90;;;;;;4982055;28;20058;-79
2022/04/02 06:18:00;;;;;;;3.15;1.52;;;0.70;99.90;;;;;;5011437;28;20014;-79
2022/04/02 06:20:26;;;;;;;1.17;1.00;;;0.80;99.90;;;;;;5001679;28;20082;-79
2022/04/02 06:22:51;;;;;;;2.22;1.10;;;0.90;99.90;;;;;;5013124;28;20019;-78
2022/04/02 06:25:17;;;;;;;2.90;1.30;;;1.00;99.90;;;;;;5006509;28;20034;-79
2022/04/02 06:27:47;;;;;;;1.60;1.05;;;1.10;99.90;;;;;;5014831;28;20025;-80
2022/04/02 06:30:16;;;;;;;1.95;1.05;;;1.20;99.90;;;;;;5006445;28;20087;-79
2022/04/02 06:32:42;;;;;;;1.90;1.27;;;1.30;99.90;;;;;;4999236;28;20094;-80
2022/04/02 06:35:08;;;;;;;5.95;1.40;;;1.30;99.90;;;;;;5001067;28;20089;-79
2022/04/02 06:37:36;;;;;;;3.80;1.00;;;1.50;99.90;;;;;;5003447;28;20014;-79
2022/04/02 06:40:04;;;;;;;3.33;1.25;;;1.60;99.90;;;;;;4999568;28;20015;-80
2022/04/02 06:42:30;;;;;;;2.75;1.13;;;1.70;99.90;;;;;;5009494;28;20022;-79
2022/04/02 06:44:55;;;;;;;2.13;0.90;;;1.80;99.90;;;;;;5010048;28;20018;-79
2022/04/02 06:47:29;;;;;;;4.07;1.50;;;1.80;99.90;;;;;;5005343;28;20042;-79
2022/04/02 06:49:55;;;;;;;1.40;0.88;;;1.90;99.90;;;;;;5010222;28;20077;-79
2022/04/02 06:52:21;;;;;;;2.63;1.55;;;2.00;99.90;;;;;;5002280;28;20036;-80
2022/04/02 06:54:47;;;;;;;2.70;1.10;;;2.10;99.90;;;;;;4995357;28;20026;-79
2022/04/02 06:57:20;;;;;;;1.85;1.40;;;2.30;99.90;;;;;;4989418;28;20027;-80
2022/04/02 06:59:46;;;;;;;3.17;1.63;;;2.90;99.90;;;;;;4983212;28;20045;-80
2022/04/02 07:02:13;;;;;;;2.40;1.42;;;4.40;99.90;;;;;;5004985;28;20053;-78
2022/04/02 07:04:38;;;;;;;2.45;1.17;;;6.10;99.90;;;;;;4996412;28;20018;-80
2022/04/02 07:07:04;;;;;;;2.28;1.33;;;7.70;99.90;;;;;;5000924;28;20030;-80
2022/04/02 07:09:30;;;;;;;4.15;1.45;;;8.60;1.00;;;;;;4995711;28;20037;-79
2022/04/02 07:11:55;;;;;;;2.33;1.40;;;8.90;99.90;;;;;;4995576;28;20027;-79
2022/04/02 07:14:21;;;;;;;3.35;1.60;;;9.60;99.90;;;;;;4983035;28;20054;-80
2022/04/02 07:16:47;;;;;;;2.63;1.45;;;9.60;99.90;;;;;;4982307;28;20019;-80
2022/04/02 07:19:14;;;;;;;5.15;1.80;;;10.40;99.90;;;;;;4986621;28;20034;-80
2022/04/02 07:21:43;;;;;;;3.60;1.42;;;11.70;99.90;;;;;;5009762;28;20037;-81
2022/04/02 07:24:11;;;;;;;2.38;1.30;;;14.30;99.90;;;;;;4994897;28;20041;-81
2022/04/02 07:26:38;;;;;;;4.00;1.38;;;16.50;99.90;;;;;;4996621;28;20021;-81
2022/04/02 07:29:06;;;;;;;4.07;1.73;;;18.40;99.90;;;;;;4978279;28;20049;-81
2022/04/02 07:31:31;;;;;;;2.50;1.10;;;18.20;99.90;;;;;;4974402;28;20041;-79
2022/04/02 07:33:57;;;;;;;1.63;1.02;;;19.10;99.90;;;;;;4993548;28;20078;-79
2022/04/02 07:37:18;;;;;;;5.63;1.80;;;19.60;99.90;;;;;;4984425;28;20086;-79
2022/04/02 07:39:53;;;;;;;2.80;1.00;;;18.20;99.90;;;;;;4928444;28;20035;-79
2022/04/02 07:42:18;;;;;;;2.90;1.40;;;18.90;99.90;;;;;;5007155;28;20034;-80
2022/04/02 07:45:04;;;;;;;4.30;1.30;;;20.20;99.90;;;;;;4994308;28;20070;-80
2022/04/02 07:47:32;;;;;;;2.92;1.27;;;19.60;99.90;;;;;;4972459;28;20072;-79
2022/04/02 07:50:11;;;;;;;3.63;1.40;;;21.60;99.90;;;;;;5005997;28;20106;-80
2022/04/02 07:52:36;;;;;;;1.17;0.95;;;20.90;99.90;;;;;;4998427;28;20031;-79
2022/04/02 07:55:06;;;;;;;1.52;1.25;;;20.50;99.90;;;;;;4995210;28;20047;-77
2022/04/02 07:57:46;;;;;;;2.20;1.10;;;20.00;99.90;;;;;;4999150;28;20018;-77
2022/04/02 08:00:14;;;;;;;1.67;1.02;;;18.90;96.90;;;;;;5012194;28;20328;-78
2022/04/02 08:02:43;;;;;;;2.20;1.30;;;18.40;96.80;;;;;;4988571;28;20140;-77
2022/04/02 08:05:12;;;;;;;0.73;0.73;;;20.10;98.50;;;;;;4973424;28;20050;-76
2022/04/02 08:07:43;;;;;;;1.33;0.60;;;19.40;95.90;;;;;;4998137;28;20023;-77
2022/04/02 08:10:11;;;;;;;1.10;0.80;;;19.60;95.10;;;;;;4991925;28;20035;-77
2022/04/02 08:12:39;;;;;;;1.85;1.00;;;17.70;92.70;;;;;;5007846;28;20049;-76
2022/04/02 08:15:12;;;;;;;1.23;0.57;;;18.50;93.60;;;;;;4978182;28;20073;-76
2022/04/02 08:17:39;;;;;;;1.95;0.80;;;18.30;92.60;;;;;;5001216;28;20042;-76
2022/04/02 08:20:05;;;;;;;1.25;0.73;;;19.30;92.20;;;;;;4999934;28;20030;-76
2022/04/02 08:22:31;;;;;;;2.25;0.90;;;17.60;89.80;;;;;;4999547;28;20038;-76
2022/04/02 08:24:58;;;;;;;1.20;0.68;;;17.40;86.70;;;;;;4983613;28;20026;-79
2022/04/02 08:27:52;;;;;;;3.13;1.02;;;18.30;88.60;;;;;;4975203;28;20049;-79
2022/04/02 08:30:42;;;;;;;2.03;0.52;;;18.30;88.50;;;;;;5005347;28;20061;-80
2022/04/02 08:33:22;;;;;;;1.17;0.70;;;17.60;85.80;;;;;;4984573;28;20133;-79
2022/04/02 08:36:06;;;;;;;;;;;18.50;87.20;;;;;;4990972;28;20022;-79
2022/04/02 08:38:37;;;;;;;0.80;0.20;;;16.70;82.90;;;;;;5005794;28;19910;-79
2022/04/02 08:41:17;;;;;;;0.65;0.30;;;18.20;85.40;;;;;;4988483;28;20038;-78
2022/04/02 08:43:43;;;;;;;;;;;16.00;77.10;;;;;;5006060;28;20031;-77
2022/04/02 08:46:28;;;;;;;0.40;0.40;;;17.40;80.40;;;;;;4994438;28;19941;-76
2022/04/02 08:48:59;;;;;;;0.98;0.40;;;17.20;78.30;;;;;;4995067;28;20061;-76
2022/04/02 08:51:44;;;;;;;0.52;0.40;;;16.50;76.90;;;;;;4986626;28;20039;-79
2022/04/02 08:54:26;;;;;;;1.52;0.70;;;11.60;72.40;;;;;;4997247;28;20092;-77
2022/04/02 08:56:59;;;;;;;1.23;0.40;;;9.40;99.90;;;;;;4993196;28;20026;-76
2022/04/02 08:59:40;;;;;;;1.35;0.32;;;8.80;99.90;;;;;;4998945;28;20058;-76
2022/04/02 09:02:37;;;;;;;0.45;0.25;;;8.20;99.90;;;;;;4976187;28;20517;-77
2022/04/02 09:05:23;;;;;;;1.63;0.85;;;9.20;99.90;;;;;;4997170;28;20048;-76
2022/04/02 09:08:04;;;;;;;0.52;0.32;;;7.80;99.90;;;;;;5004114;28;20007;-76
2022/04/02 09:11:00;;;;;;;0.80;0.35;;;7.60;99.90;;;;;;4994982;28;20031;-76
2022/04/02 09:14:08;;;;;;;0.52;0.38;;;7.00;99.90;;;;;;4994512;28;20042;-78
2022/04/02 09:16:33;;;;;;;2.45;1.20;;;6.30;99.90;;;;;;4999069;28;20347;-76
2022/04/02 09:19:24;;;;;;;0.82;0.40;;;6.10;99.90;;;;;;4982202;28;20035;-77
2022/04/02 09:22:28;;;;;;;0.70;0.40;;;6.00;99.90;;;;;;5012883;28;20061;-77
2022/04/02 09:25:18;;;;;;;0.45;0.45;;;9.40;99.90;;;;;;5007638;28;20092;-77
2022/04/02 09:28:09;;;;;;;1.33;0.43;;;12.60;99.90;;;;;;5003759;28;20065;-76
2022/04/02 09:31:10;;;;;;;1.80;0.68;;;12.00;99.90;;;;;;5011285;28;20074;-77
2022/04/02 09:34:01;;;;;;;1.63;0.88;;;11.20;99.90;;;;;;5015480;28;20031;-78
2022/04/02 09:36:31;;;;;;;3.35;1.13;;;13.60;99.90;;;;;;4999449;28;20446;-78
2022/04/02 09:39:22;;;;;;;3.03;1.10;;;15.00;99.90;;;;;;4989614;28;20026;-80
2022/04/02 09:42:15;;;;;;;2.15;1.48;;;16.30;99.90;;;;;;4992145;28;20038;-80
2022/04/02 09:45:01;;;;;;;4.03;1.60;;;12.90;99.90;;;;;;4987716;28;20023;-80
2022/04/02 09:47:53;;;;;;;0.60;0.57;;;15.70;99.90;;;;;;4980613;28;20033;-80
2022/04/02 09:50:21;;;;;;;0.98;0.63;;;12.70;99.90;;;;;;4968034;28;20041;-81
2022/04/02 09:53:14;;;;;;;2.40;0.50;;;13.90;99.90;;;;;;4983522;28;20026;-81
2022/04/02 09:55:51;;;;;;;1.58;0.60;;;14.80;99.90;;;;;;4992230;28;20038;-81
2022/04/02 09:58:40;;;;;;;2.10;0.50;;;15.80;99.90;;;;;;4969224;28;20027;-80
2022/04/02 10:01:11;;;;;;;0.95;0.40;;;12.00;99.90;;;;;;4975612;28;20375;-79
2022/04/02 10:03:51;;;;;;;;;;;8.60;99.90;;;;;;4956952;28;20081;-79
2022/04/02 10:06:24;;;;;;;;;;;14.50;99.90;;;;;;4975218;28;19910;-78
2022/04/02 10:09:13;;;;;;;0.93;0.40;;;14.40;99.90;;;;;;4957010;28;19964;-79
2022/04/02 10:11:50;;;;;;;0.40;0.38;;;14.50;99.90;;;;;;4973990;28;20485;-79
2022/04/02 10:14:28;;;;;;;0.95;0.35;;;14.60;99.90;;;;;;4972330;28;20114;-79
2022/04/02 10:17:01;;;;;;;3.42;0.30;;;15.60;99.90;;;;;;4977698;28;20070;-80
2022/04/02 10:19:35;;;;;;;0.82;0.32;;;14.80;99.90;;;;;;4975805;28;20026;-79
2022/04/02 10:22:06;;;;;;;1.23;0.60;;;14.90;99.90;;;;;;4957729;28;20467;-78
2022/04/02 10:24:48;;;;;;;0.95;0.35;;;14.90;99.90;;;;;;4979354;28;20105;-76
2022/04/02 10:27:30;;;;;;;0.57;0.50;;;15.50;99.90;;;;;;4974579;28;21561;-76
2022/04/02 10:30:12;;;;;;;1.30;0.60;;;15.40;99.90;;;;;;4956538;28;20493;-76
2022/04/02 10:32:54;;;;;;;2.03;0.38;;;15.80;99.90;;;;;;4958425;28;20074;-76
2022/04/02 10:35:25;;;;;;;0.25;0.22;;;11.40;98.80;;;;;;4967620;28;20022;-76
2022/04/02 10:38:16;;;;;;;0.55;0.20;;;9.30;99.90;;;;;;4968260;28;20062;-79
2022/04/02 10:40:46;;;;;;;0.30;0.25;;;12.80;99.90;;;;;;4956756;28;20446;-79
2022/04/02 10:43:25;;;;;;;0.40;0.40;;;10.10;99.90;;;;;;4975612;28;20068;-78
2022/04/02 10:45:50;;;;;;;1.60;0.75;;;13.80;99.90;;;;;;4980361;28;20033;-77
2022/04/02 10:48:26;;;;;;;0.47;0.30;;;15.70;99.90;;;;;;4973654;28;20031;-76
2022/04/02 10:50:57;;;;;;;0.65;0.50;;;14.30;99.90;;;;;;4978461;28;20093;-76
2022/04/02 10:53:22;;;;;;;;;;;11.40;99.90;;;;;;4981982;28;20121;-76
2022/04/02 10:56:00;;;;;;;0.68;0.55;;;13.60;99.90;;;;;;4982382;28;20013;-76
2022/04/02 10:58:27;;;;;;;0.80;0.32;;;14.10;99.90;;;;;;4976948;28;20709;-76
2022/04/02 11:00:57;;;;;;;2.13;0.20;;;11.40;99.90;;;;;;4996610;28;20030;-76
2022/04/02 11:03:46;;;;;;;1.55;0.40;;;9.30;99.90;;;;;;4995352;28;20453;-76
2022/04/02 11:06:46;;;;;;;1.05;0.82;;;9.70;99.90;;;;;;4996042;28;20501;-76
2022/04/02 11:09:30;;;;;;;1.30;0.50;;;8.60;99.90;;;;;;4995588;28;20022;-77
2022/04/02 11:12:06;;;;;;;2.90;0.63;;;8.80;99.90;;;;;;4994584;28;20401;-78
2022/04/02 11:14:42;;;;;;;1.45;0.52;;;8.70;99.90;;;;;;4995087;28;20078;-77
2022/04/02 11:17:25;;;;;;;0.20;0.20;;;8.60;99.90;;;;;;4995655;28;20050;-76
2022/04/02 11:19:54;;;;;;;0.35;0.22;;;8.20;99.90;;;;;;4975282;28;20035;-76
2022/04/02 11:22:35;;;;;;;1.50;0.50;;;7.50;99.90;;;;;;4986221;28;20479;-77
2022/04/02 11:25:00;;;;;;;1.55;0.68;;;7.40;99.90;;;;;;4991654;28;20054;-76
2022/04/02 11:27:28;;;;;;;2.17;0.60;;;7.70;99.90;;;;;;4994437;28;20057;-77
2022/04/02 11:30:00;;;;;;;0.60;0.30;;;8.00;99.90;;;;;;4984035;28;20077;-76
2022/04/02 11:32:27;;;;;;;0.73;0.70;;;8.30;99.90;;;;;;4958020;28;20043;-78
2022/04/02 11:34:53;;;;;;;0.75;0.40;;;7.90;99.90;;;;;;4974414;28;20070;-76
2022/04/02 11:37:29;;;;;;;2.03;0.68;;;8.10;99.90;;;;;;4974863;28;20395;-76
2022/04/02 11:40:02;;;;;;;0.98;0.30;;;8.00;99.90;;;;;;4957966;28;20105;-76
2022/04/02 11:42:35;;;;;;;4.30;0.40;;;7.70;99.90;;;;;;4975049;28;20109;-76
2022/04/02 11:45:08;;;;;;;2.53;0.75;;;7.40;99.90;;;;;;4974969;28;20026;-77
2022/04/02 11:47:37;;;;;;;1.15;0.47;;;7.20;99.90;;;;;;4969232;28;20387;-79
2022/04/02 11:50:06;;;;;;;1.80;0.50;;;8.00;99.90;;;;;;4982405;28;20015;-77
2022/04/02 11:52:53;;;;;;;1.42;0.55;;;8.40;99.90;;;;;;4974239;28;20538;-77
2022/04/02 11:55:19;;;;;;;2.80;0.70;;;7.70;99.90;;;;;;4961500;28;20394;-78
2022/04/02 11:57:57;;;;;;;1.67;0.60;;;6.90;99.90;;;;;;4976679;28;20078;-77
2022/04/02 12:00:32;;;;;;;0.65;0.30;;;6.40;99.90;;;;;;4974532;28;20119;-77
2022/04/02 12:03:01;;;;;;;0.75;0.50;;;6.70;99.90;;;;;;4987525;28;20028;-77
2022/04/02 12:05:41;;;;;;;0.20;0.20;;;7.30;99.90;;;;;;4984321;28;20030;-77
2022/04/02 12:08:07;;;;;;;0.93;0.30;;;7.30;99.90;;;;;;4961060;28;20027;-79
2022/04/02 12:10:42;;;;;;;1.20;0.25;;;7.30;99.90;;;;;;4985249;28;20034;-79
2022/04/02 12:13:08;;;;;;;1.92;0.60;;;7.80;99.90;;;;;;4983910;28;20151;-78
2022/04/02 12:15:59;;;;;;;2.35;0.63;;;7.50;99.90;;;;;;4984581;28;20402;-78
2022/04/02 12:18:26;;;;;;;1.05;0.40;;;6.80;99.90;;;;;;4982925;28;20419;-78
2022/04/02 12:21:09;;;;;;;1.08;0.55;;;7.00;99.90;;;;;;4973567;28;20027;-78
2022/04/02 12:23:37;;;;;;;2.65;0.70;;;7.50;99.90;;;;;;4976691;28;20027;-79
2022/04/02 12:26:03;;;;;;;0.70;0.30;;;7.80;99.90;;;;;;4979015;28;20058;-78
2022/04/02 12:28:29;;;;;;;0.68;0.30;;;7.50;99.90;;;;;;4982981;28;20027;-78
2022/04/02 12:31:04;;;;;;;1.08;0.30;;;7.30;99.90;;;;;;4976937;28;20500;-77
2022/04/02 12:33:30;;;;;;;0.40;0.38;;;7.40;99.90;;;;;;4982136;28;20130;-78
2022/04/02 12:36:05;;;;;;;1.45;0.47;;;7.60;99.90;;;;;;4977720;28;20082;-78
2022/04/02 12:38:34;;;;;;;0.95;0.38;;;7.10;99.90;;;;;;4971604;28;20035;-79
2022/04/02 12:41:02;;;;;;;1.85;0.50;;;7.20;99.90;;;;;;4959734;28;20022;-77
2022/04/02 12:43:34;;;;;;;0.30;0.30;;;7.40;99.90;;;;;;4972059;28;20133;-78
2022/04/02 12:46:01;;;;;;;0.65;0.40;;;7.30;99.90;;;;;;4994625;28;20028;-77
2022/04/02 12:48:43;;;;;;;1.08;0.25;;;7.10;99.90;;;;;;4980417;28;20053;-77
2022/04/02 12:51:13;;;;;;;0.30;0.28;;;7.50;99.90;;;;;;4976512;28;20415;-77
2022/04/02 12:53:42;;;;;;;0.57;0.50;;;7.70;99.90;;;;;;4978217;28;20159;-77
2022/04/02 12:56:16;;;;;;;2.28;0.73;;;7.40;99.90;;;;;;4961341;28;20034;-77
2022/04/02 12:58:45;;;;;;;1.15;0.40;;;6.50;99.90;;;;;;4997177;28;20029;-78
2022/04/02 13:01:30;;;;;;;1.42;0.55;;;7.00;99.90;;;;;;4998675;28;20031;-77
2022/04/02 13:04:03;;;;;;;0.52;0.30;;;7.10;99.90;;;;;;4963813;28;20097;-78
2022/04/02 13:06:34;;;;;;;0.82;0.30;;;7.60;99.90;;;;;;4987949;28;20081;-78
2022/04/02 13:09:01;;;;;;;0.57;0.40;;;7.60;99.90;;;;;;5018638;28;20401;-77
2022/04/02 13:12:00;;;;;;;0.60;0.50;;;7.00;99.90;;;;;;5014124;28;20030;-78
2022/04/02 13:14:28;;;;;;;0.85;0.52;;;6.80;99.90;;;;;;5005428;28;20402;-78
2022/04/02 13:17:30;;;;;;;0.25;0.20;;;7.00;99.90;;;;;;5000288;28;20478;-78